sensor_id;sensor_type;location;lat;lon;timestamp;pressure;altitude;pressure_sealevel;temperature;humidity
77454;BME280;66538;53.150;18.160;2023-06-26T00:01:00;101360.26;;;18.52;60.88
77454;BME280;66538;53.150;18.160;2023-06-26T00:03:47;101361.70;;;18.51;60.96
77454;BME280;66538;53.150;18.160;2023-06-26T00:06:14;101357.20;;;18.49;61.18
77454;BME280;66538;53.150;18.160;2023-06-26T00:08:41;101357.05;;;18.47;61.33
77454;BME280;66538;53.150;18.160;2023-06-26T00:11:07;101352.38;;;18.44;61.50
77454;BME280;66538;53.150;18.160;2023-06-26T00:13:34;101356.02;;;18.44;61.57
77454;BME280;66538;53.150;18.160;2023-06-26T00:16:00;101357.17;;;18.42;61.80
77454;BME280;66538;53.150;18.160;2023-06-26T00:18:29;101354.40;;;18.40;62.00
77454;BME280;66538;53.150;18.160;2023-06-26T00:20:56;101356.27;;;18.36;62.07
77454;BME280;66538;53.150;18.160;2023-06-26T00:23:22;101352.25;;;18.32;62.20
77454;BME280;66538;53.150;18.160;2023-06-26T00:25:49;101354.11;;;18.31;62.41
77454;BME280;66538;53.150;18.160;2023-06-26T00:28:15;101352.63;;;18.28;62.47
77454;BME280;66538;53.150;18.160;2023-06-26T00:30:42;101351.73;;;18.25;62.51
77454;BME280;66538;53.150;18.160;2023-06-26T00:33:09;101351.25;;;18.22;62.52
77454;BME280;66538;53.150;18.160;2023-06-26T00:35:35;101352.55;;;18.20;62.67
77454;BME280;66538;53.150;18.160;2023-06-26T00:38:04;101350.20;;;18.16;62.74
77454;BME280;66538;53.150;18.160;2023-06-26T00:40:30;101350.48;;;18.14;62.78
77454;BME280;66538;53.150;18.160;2023-06-26T00:42:57;101352.52;;;18.10;62.94
77454;BME280;66538;53.150;18.160;2023-06-26T00:45:24;101348.29;;;18.08;62.87
77454;BME280;66538;53.150;18.160;2023-06-26T00:47:52;101348.15;;;18.06;62.98
77454;BME280;66538;53.150;18.160;2023-06-26T00:50:19;101347.38;;;18.03;63.15
77454;BME280;66538;53.150;18.160;2023-06-26T00:52:46;101345.84;;;18.00;63.35
77454;BME280;66538;53.150;18.160;2023-06-26T00:55:13;101346.67;;;17.96;63.44
77454;BME280;66538;53.150;18.160;2023-06-26T00:57:40;101339.63;;;17.92;63.50
77454;BME280;66538;53.150;18.160;2023-06-26T01:00:08;101344.40;;;17.89;63.56
77454;BME280;66538;53.150;18.160;2023-06-26T01:02:36;101342.62;;;17.84;63.87
77454;BME280;66538;53.150;18.160;2023-06-26T01:05:06;101342.27;;;17.78;64.12
77454;BME280;66538;53.150;18.160;2023-06-26T01:07:36;101341.86;;;17.74;64.11
77454;BME280;66538;53.150;18.160;2023-06-26T01:10:04;101340.94;;;17.71;64.28
77454;BME280;66538;53.150;18.160;2023-06-26T01:12:35;101340.08;;;17.67;64.54
77454;BME280;66538;53.150;18.160;2023-06-26T01:15:03;101341.34;;;17.63;64.82
77454;BME280;66538;53.150;18.160;2023-06-26T01:17:30;101340.58;;;17.59;64.89
77454;BME280;66538;53.150;18.160;2023-06-26T01:19:59;101341.31;;;17.59;65.11
77454;BME280;66538;53.150;18.160;2023-06-26T01:22:42;101338.77;;;17.56;65.30
77454;BME280;66538;53.150;18.160;2023-06-26T01:25:24;101331.35;;;17.53;65.37
77454;BME280;66538;53.150;18.160;2023-06-26T01:27:56;101332.35;;;17.48;65.77
77454;BME280;66538;53.150;18.160;2023-06-26T01:30:25;101330.64;;;17.46;65.76
77454;BME280;66538;53.150;18.160;2023-06-26T01:32:51;101331.92;;;17.44;65.85
77454;BME280;66538;53.150;18.160;2023-06-26T01:35:18;101328.84;;;17.41;65.94
77454;BME280;66538;53.150;18.160;2023-06-26T01:37:46;101324.73;;;17.39;66.06
77454;BME280;66538;53.150;18.160;2023-06-26T01:40:12;101324.45;;;17.36;66.20
77454;BME280;66538;53.150;18.160;2023-06-26T01:42:39;101320.64;;;17.34;66.42
77454;BME280;66538;53.150;18.160;2023-06-26T01:45:17;101318.73;;;17.33;66.49
77454;BME280;66538;53.150;18.160;2023-06-26T01:47:50;101318.27;;;17.32;66.58
77454;BME280;66538;53.150;18.160;2023-06-26T01:50:22;101316.13;;;17.31;66.71
77454;BME280;66538;53.150;18.160;2023-06-26T01:53:12;101316.33;;;17.29;66.84
77454;BME280;66538;53.150;18.160;2023-06-26T01:56:03;101318.08;;;17.26;66.77
77454;BME280;66538;53.150;18.160;2023-06-26T01:58:33;101316.51;;;17.25;67.04
77454;BME280;66538;53.150;18.160;2023-06-26T02:01:02;101314.26;;;17.21;66.85
77454;BME280;66538;53.150;18.160;2023-06-26T02:03:29;101318.41;;;17.19;67.07
77454;BME280;66538;53.150;18.160;2023-06-26T02:05:56;101315.29;;;17.17;67.12
77454;BME280;66538;53.150;18.160;2023-06-26T02:08:23;101313.61;;;17.13;67.14
77454;BME280;66538;53.150;18.160;2023-06-26T02:10:50;101314.65;;;17.09;67.17
77454;BME280;66538;53.150;18.160;2023-06-26T02:13:17;101312.48;;;17.05;67.33
77454;BME280;66538;53.150;18.160;2023-06-26T02:15:43;101313.73;;;17.01;67.49
77454;BME280;66538;53.150;18.160;2023-06-26T02:18:10;101310.84;;;16.97;67.55
77454;BME280;66538;53.150;18.160;2023-06-26T02:20:36;101310.38;;;16.90;67.68
77454;BME280;66538;53.150;18.160;2023-06-26T02:23:03;101311.88;;;16.86;67.78
77454;BME280;66538;53.150;18.160;2023-06-26T02:25:30;101307.73;;;16.80;67.94
77454;BME280;66538;53.150;18.160;2023-06-26T02:27:56;101305.61;;;16.75;68.10
77454;BME280;66538;53.150;18.160;2023-06-26T02:30:23;101309.98;;;16.71;68.31
77454;BME280;66538;53.150;18.160;2023-06-26T02:32:49;101310.58;;;16.68;68.44
77454;BME280;66538;53.150;18.160;2023-06-26T02:35:18;101310.98;;;16.63;68.45
77454;BME280;66538;53.150;18.160;2023-06-26T02:37:44;101312.71;;;16.61;68.50
77454;BME280;66538;53.150;18.160;2023-06-26T02:40:12;101309.52;;;16.58;68.79
77454;BME280;66538;53.150;18.160;2023-06-26T02:42:39;101311.17;;;16.57;68.64
77454;BME280;66538;53.150;18.160;2023-06-26T02:45:06;101308.42;;;16.53;68.79
77454;BME280;66538;53.150;18.160;2023-06-26T02:47:33;101311.23;;;16.52;68.89
77454;BME280;66538;53.150;18.160;2023-06-26T02:50:00;101309.77;;;16.52;68.92
77454;BME280;66538;53.150;18.160;2023-06-26T02:52:27;101311.55;;;16.53;68.88
77454;BME280;66538;53.150;18.160;2023-06-26T02:54:55;101318.06;;;16.54;68.99
77454;BME280;66538;53.150;18.160;2023-06-26T02:57:21;101320.20;;;16.54;69.00
77454;BME280;66538;53.150;18.160;2023-06-26T02:59:48;101313.63;;;16.54;68.98
77454;BME280;66538;53.150;18.160;2023-06-26T03:02:15;101314.55;;;16.54;68.96
77454;BME280;66538;53.150;18.160;2023-06-26T03:04:44;101315.67;;;16.57;69.09
77454;BME280;66538;53.150;18.160;2023-06-26T03:07:13;101314.38;;;16.59;69.16
77454;BME280;66538;53.150;18.160;2023-06-26T03:09:39;101320.70;;;16.61;69.17
77454;BME280;66538;53.150;18.160;2023-06-26T03:12:07;101315.94;;;16.62;69.14
77454;BME280;66538;53.150;18.160;2023-06-26T03:14:34;101317.75;;;16.61;69.34
77454;BME280;66538;53.150;18.160;2023-06-26T03:17:01;101316.39;;;16.61;69.36
77454;BME280;66538;53.150;18.160;2023-06-26T03:19:30;101315.54;;;16.62;69.40
77454;BME280;66538;53.150;18.160;2023-06-26T03:22:15;101313.59;;;16.65;69.18
77454;BME280;66538;53.150;18.160;2023-06-26T03:24:43;101312.38;;;16.69;69.21
77454;BME280;66538;53.150;18.160;2023-06-26T03:27:11;101311.77;;;16.73;69.16
77454;BME280;66538;53.150;18.160;2023-06-26T03:29:39;101308.40;;;16.75;69.09
77454;BME280;66538;53.150;18.160;2023-06-26T03:32:06;101310.64;;;16.80;69.07
77454;BME280;66538;53.150;18.160;2023-06-26T03:34:34;101307.58;;;16.84;69.01
77454;BME280;66538;53.150;18.160;2023-06-26T03:37:01;101309.52;;;16.89;68.87
77454;BME280;66538;53.150;18.160;2023-06-26T03:39:29;101309.02;;;16.94;68.84
77454;BME280;66538;53.150;18.160;2023-06-26T03:41:55;101312.52;;;16.98;68.65
77454;BME280;66538;53.150;18.160;2023-06-26T03:44:27;101316.45;;;17.03;68.64
77454;BME280;66538;53.150;18.160;2023-06-26T03:46:54;101316.98;;;17.08;68.47
77454;BME280;66538;53.150;18.160;2023-06-26T03:49:21;101311.93;;;17.11;68.52
77454;BME280;66538;53.150;18.160;2023-06-26T03:51:47;101311.24;;;17.17;68.65
77454;BME280;66538;53.150;18.160;2023-06-26T03:54:14;101312.34;;;17.21;68.53
77454;BME280;66538;53.150;18.160;2023-06-26T03:56:42;101304.35;;;17.23;68.41
77454;BME280;66538;53.150;18.160;2023-06-26T03:59:10;101305.11;;;17.27;68.48
77454;BME280;66538;53.150;18.160;2023-06-26T04:01:37;101307.27;;;17.33;68.25
77454;BME280;66538;53.150;18.160;2023-06-26T04:04:05;101301.88;;;17.37;68.36
77454;BME280;66538;53.150;18.160;2023-06-26T04:06:32;101300.77;;;17.42;68.27
77454;BME280;66538;53.150;18.160;2023-06-26T04:09:00;101297.23;;;17.47;68.17
77454;BME280;66538;53.150;18.160;2023-06-26T04:11:27;101299.11;;;17.56;68.15
77454;BME280;66538;53.150;18.160;2023-06-26T04:13:53;101302.60;;;17.65;68.09
77454;BME280;66538;53.150;18.160;2023-06-26T04:16:21;101303.09;;;17.70;68.13
77454;BME280;66538;53.150;18.160;2023-06-26T04:18:52;101304.92;;;17.78;68.35
77454;BME280;66538;53.150;18.160;2023-06-26T04:21:19;101297.61;;;17.85;67.98
77454;BME280;66538;53.150;18.160;2023-06-26T04:23:46;101297.13;;;17.90;68.10
77454;BME280;66538;53.150;18.160;2023-06-26T04:26:14;101296.73;;;17.93;68.09
77454;BME280;66538;53.150;18.160;2023-06-26T04:28:41;101299.73;;;17.98;68.01
77454;BME280;66538;53.150;18.160;2023-06-26T04:31:08;101297.00;;;18.02;68.21
77454;BME280;66538;53.150;18.160;2023-06-26T04:33:36;101294.29;;;18.07;68.14
77454;BME280;66538;53.150;18.160;2023-06-26T04:36:04;101294.44;;;18.13;68.30
77454;BME280;66538;53.150;18.160;2023-06-26T04:38:32;101297.10;;;18.20;68.19
77454;BME280;66538;53.150;18.160;2023-06-26T04:41:00;101296.98;;;18.26;68.32
77454;BME280;66538;53.150;18.160;2023-06-26T04:43:26;101300.81;;;18.36;68.21
77454;BME280;66538;53.150;18.160;2023-06-26T04:45:53;101296.64;;;18.44;68.02
77454;BME280;66538;53.150;18.160;2023-06-26T04:48:20;101297.98;;;18.53;68.02
77454;BME280;66538;53.150;18.160;2023-06-26T04:50:48;101297.30;;;18.59;68.02
77454;BME280;66538;53.150;18.160;2023-06-26T04:53:21;101296.09;;;18.64;67.85
77454;BME280;66538;53.150;18.160;2023-06-26T04:55:52;101296.20;;;18.69;67.76
77454;BME280;66538;53.150;18.160;2023-06-26T04:58:19;101297.92;;;18.76;67.82
77454;BME280;66538;53.150;18.160;2023-06-26T05:00:46;101302.85;;;18.84;67.61
77454;BME280;66538;53.150;18.160;2023-06-26T05:03:14;101297.73;;;18.91;67.51
77454;BME280;66538;53.150;18.160;2023-06-26T05:05:43;101300.75;;;18.99;67.37
77454;BME280;66538;53.150;18.160;2023-06-26T05:10:41;101301.29;;;19.15;67.16
77454;BME280;66538;53.150;18.160;2023-06-26T05:13:08;101301.17;;;19.18;67.08
77454;BME280;66538;53.150;18.160;2023-06-26T05:15:34;101301.91;;;19.21;67.14
77454;BME280;66538;53.150;18.160;2023-06-26T05:18:01;101300.27;;;19.24;67.35
77454;BME280;66538;53.150;18.160;2023-06-26T05:20:28;101295.74;;;19.27;67.13
77454;BME280;66538;53.150;18.160;2023-06-26T05:22:54;101295.99;;;19.35;67.15
77454;BME280;66538;53.150;18.160;2023-06-26T05:25:22;101296.59;;;19.45;66.91
77454;BME280;66538;53.150;18.160;2023-06-26T05:27:50;101291.64;;;19.50;66.69
77454;BME280;66538;53.150;18.160;2023-06-26T05:30:18;101288.90;;;19.58;66.57
77454;BME280;66538;53.150;18.160;2023-06-26T05:32:46;101286.72;;;19.66;66.67
77454;BME280;66538;53.150;18.160;2023-06-26T05:35:15;101286.80;;;19.75;66.42
77454;BME280;66538;53.150;18.160;2023-06-26T05:37:43;101284.86;;;19.82;66.30
77454;BME280;66538;53.150;18.160;2023-06-26T05:40:11;101278.44;;;19.87;66.19
77454;BME280;66538;53.150;18.160;2023-06-26T05:42:38;101277.60;;;19.94;66.02
77454;BME280;66538;53.150;18.160;2023-06-26T05:45:05;101280.61;;;20.01;66.07
77454;BME280;66538;53.150;18.160;2023-06-26T05:47:31;101281.44;;;20.09;65.82
77454;BME280;66538;53.150;18.160;2023-06-26T05:49:58;101282.27;;;20.17;65.61
77454;BME280;66538;53.150;18.160;2023-06-26T05:52:25;101285.10;;;20.22;65.46
77454;BME280;66538;53.150;18.160;2023-06-26T05:54:52;101281.98;;;20.27;65.54
77454;BME280;66538;53.150;18.160;2023-06-26T05:57:19;101278.86;;;20.38;65.31
77454;BME280;66538;53.150;18.160;2023-06-26T05:59:46;101278.27;;;20.46;65.20
77454;BME280;66538;53.150;18.160;2023-06-26T06:02:13;101275.27;;;20.54;64.91
77454;BME280;66538;53.150;18.160;2023-06-26T06:04:40;101272.65;;;20.62;64.82
77454;BME280;66538;53.150;18.160;2023-06-26T06:07:06;101272.88;;;20.71;64.61
77454;BME280;66538;53.150;18.160;2023-06-26T06:09:33;101274.38;;;20.78;64.34
77454;BME280;66538;53.150;18.160;2023-06-26T06:12:00;101275.73;;;20.84;64.15
77454;BME280;66538;53.150;18.160;2023-06-26T06:14:27;101270.02;;;20.91;64.04
77454;BME280;66538;53.150;18.160;2023-06-26T06:16:54;101272.40;;;20.99;64.00
77454;BME280;66538;53.150;18.160;2023-06-26T06:19:22;101273.11;;;21.08;63.70
77454;BME280;66538;53.150;18.160;2023-06-26T06:21:48;101272.28;;;21.17;63.40
77454;BME280;66538;53.150;18.160;2023-06-26T06:24:15;101270.05;;;21.24;63.26
77454;BME280;66538;53.150;18.160;2023-06-26T06:26:42;101264.83;;;21.30;63.10
77454;BME280;66538;53.150;18.160;2023-06-26T06:29:08;101266.54;;;21.38;63.08
77454;BME280;66538;53.150;18.160;2023-06-26T06:31:35;101266.98;;;21.48;62.96
77454;BME280;66538;53.150;18.160;2023-06-26T06:34:02;101257.79;;;21.57;62.82
77454;BME280;66538;53.150;18.160;2023-06-26T06:36:29;101257.74;;;21.64;62.75
77454;BME280;66538;53.150;18.160;2023-06-26T06:38:55;101257.62;;;21.78;62.33
77454;BME280;66538;53.150;18.160;2023-06-26T06:41:22;101254.80;;;21.87;61.74
77454;BME280;66538;53.150;18.160;2023-06-26T06:43:49;101254.77;;;21.95;61.75
77454;BME280;66538;53.150;18.160;2023-06-26T06:46:15;101256.23;;;22.08;61.40
77454;BME280;66538;53.150;18.160;2023-06-26T06:48:42;101253.17;;;22.18;61.18
77454;BME280;66538;53.150;18.160;2023-06-26T06:51:08;101254.94;;;22.28;60.84
77454;BME280;66538;53.150;18.160;2023-06-26T06:53:35;101256.43;;;22.35;60.58
77454;BME280;66538;53.150;18.160;2023-06-26T06:56:02;101254.59;;;22.47;60.48
77454;BME280;66538;53.150;18.160;2023-06-26T06:58:28;101252.02;;;22.59;60.25
77454;BME280;66538;53.150;18.160;2023-06-26T07:00:55;101256.63;;;22.72;59.90
77454;BME280;66538;53.150;18.160;2023-06-26T07:03:22;101254.77;;;22.81;59.23
77454;BME280;66538;53.150;18.160;2023-06-26T07:05:49;101253.17;;;22.89;58.96
77454;BME280;66538;53.150;18.160;2023-06-26T07:08:16;101248.80;;;22.98;58.84
77454;BME280;66538;53.150;18.160;2023-06-26T07:10:42;101252.23;;;23.08;58.51
77454;BME280;66538;53.150;18.160;2023-06-26T07:13:09;101252.60;;;23.19;58.23
77454;BME280;66538;53.150;18.160;2023-06-26T07:15:35;101252.85;;;23.32;57.48
77454;BME280;66538;53.150;18.160;2023-06-26T07:18:02;101249.45;;;23.43;57.09
77454;BME280;66538;53.150;18.160;2023-06-26T07:20:28;101252.29;;;23.55;56.91
77454;BME280;66538;53.150;18.160;2023-06-26T07:22:55;101246.21;;;23.67;56.89
77454;BME280;66538;53.150;18.160;2023-06-26T07:25:22;101249.74;;;23.78;56.16
77454;BME280;66538;53.150;18.160;2023-06-26T07:27:49;101248.92;;;23.86;55.34
77454;BME280;66538;53.150;18.160;2023-06-26T07:30:15;101249.87;;;23.90;54.57
77454;BME280;66538;53.150;18.160;2023-06-26T07:32:44;101251.97;;;23.93;54.69
77454;BME280;66538;53.150;18.160;2023-06-26T07:35:11;101249.02;;;24.00;54.58
77454;BME280;66538;53.150;18.160;2023-06-26T07:37:37;101249.14;;;24.05;54.52
77454;BME280;66538;53.150;18.160;2023-06-26T07:40:05;101243.34;;;24.15;54.45
77454;BME280;66538;53.150;18.160;2023-06-26T07:42:31;101244.30;;;24.27;54.01
77454;BME280;66538;53.150;18.160;2023-06-26T07:44:58;101245.55;;;24.36;53.81
77454;BME280;66538;53.150;18.160;2023-06-26T07:47:24;101238.05;;;24.47;53.56
77454;BME280;66538;53.150;18.160;2023-06-26T07:49:51;101232.31;;;24.59;53.14
77454;BME280;66538;53.150;18.160;2023-06-26T07:52:19;101231.55;;;24.69;52.46
77454;BME280;66538;53.150;18.160;2023-06-26T07:54:45;101229.31;;;24.73;52.07
77454;BME280;66538;53.150;18.160;2023-06-26T07:57:12;101229.16;;;24.79;51.73
77454;BME280;66538;53.150;18.160;2023-06-26T07:59:39;101230.38;;;24.85;51.41
77454;BME280;66538;53.150;18.160;2023-06-26T08:02:06;101227.48;;;24.92;51.40
77454;BME280;66538;53.150;18.160;2023-06-26T08:04:33;101228.46;;;25.01;51.26
77454;BME280;66538;53.150;18.160;2023-06-26T08:07:00;101230.14;;;25.10;51.09
77454;BME280;66538;53.150;18.160;2023-06-26T08:09:28;101229.45;;;25.21;50.54
77454;BME280;66538;53.150;18.160;2023-06-26T08:11:55;101230.83;;;25.27;50.09
77454;BME280;66538;53.150;18.160;2023-06-26T08:14:23;101230.91;;;25.33;49.91
77454;BME280;66538;53.150;18.160;2023-06-26T08:16:50;101226.76;;;25.38;49.83
77454;BME280;66538;53.150;18.160;2023-06-26T08:19:17;101222.70;;;25.43;49.58
77454;BME280;66538;53.150;18.160;2023-06-26T08:21:44;101219.89;;;25.45;49.32
77454;BME280;66538;53.150;18.160;2023-06-26T08:24:12;101215.41;;;25.53;48.95
77454;BME280;66538;53.150;18.160;2023-06-26T08:26:45;101205.12;;;25.62;48.00
77454;BME280;66538;53.150;18.160;2023-06-26T08:29:13;101202.27;;;25.73;47.63
77454;BME280;66538;53.150;18.160;2023-06-26T08:31:41;101200.73;;;25.77;47.58
77454;BME280;66538;53.150;18.160;2023-06-26T08:34:08;101199.58;;;25.91;47.18
77454;BME280;66538;53.150;18.160;2023-06-26T08:36:35;101195.84;;;26.06;46.91
77454;BME280;66538;53.150;18.160;2023-06-26T08:39:01;101195.31;;;26.17;45.46
77454;BME280;66538;53.150;18.160;2023-06-26T08:41:29;101194.40;;;26.26;44.94
77454;BME280;66538;53.150;18.160;2023-06-26T08:43:56;101195.56;;;26.34;44.40
77454;BME280;66538;53.150;18.160;2023-06-26T08:46:23;101190.75;;;26.42;43.88
77454;BME280;66538;53.150;18.160;2023-06-26T08:51:54;101190.89;;;26.52;43.44
77454;BME280;66538;53.150;18.160;2023-06-26T08:54:31;101193.29;;;26.56;43.15
77454;BME280;66538;53.150;18.160;2023-06-26T08:57:01;101191.38;;;26.56;43.04
77454;BME280;66538;53.150;18.160;2023-06-26T08:59:28;101189.45;;;26.58;42.03
77454;BME280;66538;53.150;18.160;2023-06-26T09:01:55;101183.91;;;26.63;42.10
77454;BME280;66538;53.150;18.160;2023-06-26T09:04:22;101188.61;;;26.73;42.01
77454;BME280;66538;53.150;18.160;2023-06-26T09:06:49;101184.38;;;26.80;41.60
77454;BME280;66538;53.150;18.160;2023-06-26T09:09:15;101189.52;;;26.87;41.54
77454;BME280;66538;53.150;18.160;2023-06-26T09:11:42;101181.87;;;26.94;41.22
77454;BME280;66538;53.150;18.160;2023-06-26T09:14:09;101179.70;;;27.04;40.72
77454;BME280;66538;53.150;18.160;2023-06-26T09:16:40;101176.88;;;27.15;40.81
77454;BME280;66538;53.150;18.160;2023-06-26T09:19:13;101175.58;;;27.33;40.83
77454;BME280;66538;53.150;18.160;2023-06-26T09:21:41;101174.13;;;27.50;40.94
77454;BME280;66538;53.150;18.160;2023-06-26T09:24:09;101175.55;;;27.62;40.61
77454;BME280;66538;53.150;18.160;2023-06-26T09:26:37;101172.41;;;27.65;40.81
77454;BME280;66538;53.150;18.160;2023-06-26T09:29:05;101168.94;;;27.62;40.78
77454;BME280;66538;53.150;18.160;2023-06-26T09:31:33;101172.30;;;27.73;40.86
77454;BME280;66538;53.150;18.160;2023-06-26T09:34:00;101168.31;;;27.77;40.90
77454;BME280;66538;53.150;18.160;2023-06-26T09:36:29;101170.91;;;27.92;40.75
77454;BME280;66538;53.150;18.160;2023-06-26T09:39:06;101161.42;;;28.03;40.50
77454;BME280;66538;53.150;18.160;2023-06-26T09:41:42;101159.42;;;28.17;40.02
77454;BME280;66538;53.150;18.160;2023-06-26T09:44:11;101163.19;;;28.30;39.83
77454;BME280;66538;53.150;18.160;2023-06-26T09:46:39;101156.27;;;28.42;39.09
77454;BME280;66538;53.150;18.160;2023-06-26T09:49:11;101156.08;;;28.49;38.64
77454;BME280;66538;53.150;18.160;2023-06-26T09:51:40;101155.16;;;28.47;38.69
77454;BME280;66538;53.150;18.160;2023-06-26T09:54:08;101149.08;;;28.51;38.70
77454;BME280;66538;53.150;18.160;2023-06-26T09:56:36;101152.71;;;28.54;38.58
77454;BME280;66538;53.150;18.160;2023-06-26T09:59:04;101154.27;;;28.56;38.49
77454;BME280;66538;53.150;18.160;2023-06-26T10:01:32;101146.34;;;28.55;38.64
77454;BME280;66538;53.150;18.160;2023-06-26T10:03:58;101149.11;;;28.59;38.64
77454;BME280;66538;53.150;18.160;2023-06-26T10:06:47;101146.67;;;28.62;38.19
77454;BME280;66538;53.150;18.160;2023-06-26T10:09:19;101139.60;;;28.58;38.21
77454;BME280;66538;53.150;18.160;2023-06-26T10:11:51;101136.94;;;28.62;38.20
77454;BME280;66538;53.150;18.160;2023-06-26T10:14:21;101134.55;;;28.63;38.12
77454;BME280;66538;53.150;18.160;2023-06-26T10:16:49;101134.54;;;28.69;37.74
77454;BME280;66538;53.150;18.160;2023-06-26T10:19:21;101134.98;;;28.78;37.76
77454;BME280;66538;53.150;18.160;2023-06-26T10:21:53;101134.71;;;28.89;37.88
77454;BME280;66538;53.150;18.160;2023-06-26T10:24:22;101131.95;;;29.03;37.16
77454;BME280;66538;53.150;18.160;2023-06-26T10:26:52;101132.77;;;29.05;36.29
77454;BME280;66538;53.150;18.160;2023-06-26T10:29:22;101134.80;;;29.08;36.02
77454;BME280;66538;53.150;18.160;2023-06-26T10:31:51;101130.11;;;29.18;35.81
77454;BME280;66538;53.150;18.160;2023-06-26T10:34:19;101122.36;;;29.26;35.82
77454;BME280;66538;53.150;18.160;2023-06-26T10:36:46;101112.52;;;29.33;35.78
77454;BME280;66538;53.150;18.160;2023-06-26T10:39:14;101108.05;;;29.43;34.96
77454;BME280;66538;53.150;18.160;2023-06-26T10:41:41;101104.11;;;29.49;34.53
77454;BME280;66538;53.150;18.160;2023-06-26T10:44:09;101106.35;;;29.57;34.42
77454;BME280;66538;53.150;18.160;2023-06-26T10:46:55;101104.55;;;29.59;34.08
77454;BME280;66538;53.150;18.160;2023-06-26T10:49:25;101100.61;;;29.59;33.88
77454;BME280;66538;53.150;18.160;2023-06-26T10:51:52;101098.60;;;29.65;33.96
77454;BME280;66538;53.150;18.160;2023-06-26T10:54:21;101094.48;;;29.82;33.94
77454;BME280;66538;53.150;18.160;2023-06-26T10:56:50;101087.42;;;30.02;34.05
77454;BME280;66538;53.150;18.160;2023-06-26T10:59:21;101082.11;;;30.20;33.97
77454;BME280;66538;53.150;18.160;2023-06-26T11:01:57;101079.32;;;30.37;33.24
77454;BME280;66538;53.150;18.160;2023-06-26T11:04:47;101079.30;;;30.49;32.31
77454;BME280;66538;53.150;18.160;2023-06-26T11:07:21;101074.53;;;30.57;31.91
77454;BME280;66538;53.150;18.160;2023-06-26T11:10:00;101075.80;;;30.71;31.08
77454;BME280;66538;53.150;18.160;2023-06-26T11:12:39;101077.27;;;30.80;30.28
77454;BME280;66538;53.150;18.160;2023-06-26T11:15:13;101072.89;;;30.91;29.71
77454;BME280;66538;53.150;18.160;2023-06-26T11:17:41;101070.11;;;30.98;29.60
77454;BME280;66538;53.150;18.160;2023-06-26T11:20:10;101069.25;;;31.16;29.79
77454;BME280;66538;53.150;18.160;2023-06-26T11:22:40;101064.64;;;31.41;29.20
77454;BME280;66538;53.150;18.160;2023-06-26T11:25:08;101065.84;;;31.60;28.92
77454;BME280;66538;53.150;18.160;2023-06-26T11:27:42;101057.81;;;31.72;28.02
77454;BME280;66538;53.150;18.160;2023-06-26T11:30:10;101047.54;;;31.78;27.79
77454;BME280;66538;53.150;18.160;2023-06-26T11:32:39;101046.89;;;31.90;28.00
77454;BME280;66538;53.150;18.160;2023-06-26T11:35:07;101049.65;;;32.05;27.93
77454;BME280;66538;53.150;18.160;2023-06-26T11:37:36;101049.04;;;32.22;27.77
77454;BME280;66538;53.150;18.160;2023-06-26T11:40:19;101046.04;;;32.37;27.40
77454;BME280;66538;53.150;18.160;2023-06-26T11:42:46;101046.03;;;32.56;27.68
77454;BME280;66538;53.150;18.160;2023-06-26T11:45:13;101045.77;;;32.76;27.14
77454;BME280;66538;53.150;18.160;2023-06-26T11:47:40;101047.13;;;32.93;26.73
77454;BME280;66538;53.150;18.160;2023-06-26T11:50:14;101045.27;;;33.08;26.68
77454;BME280;66538;53.150;18.160;2023-06-26T11:52:41;101041.98;;;33.30;25.86
77454;BME280;66538;53.150;18.160;2023-06-26T11:55:08;101039.81;;;33.47;25.93
77454;BME280;66538;53.150;18.160;2023-06-26T11:57:37;101037.19;;;33.61;26.19
77454;BME280;66538;53.150;18.160;2023-06-26T12:00:14;101032.27;;;33.71;25.70
77454;BME280;66538;53.150;18.160;2023-06-26T12:02:42;101028.74;;;33.76;25.74
77454;BME280;66538;53.150;18.160;2023-06-26T12:05:11;101024.35;;;33.91;25.53
77454;BME280;66538;53.150;18.160;2023-06-26T12:07:38;101019.10;;;34.00;25.80
77454;BME280;66538;53.150;18.160;2023-06-26T12:10:06;101017.59;;;34.05;26.09
77454;BME280;66538;53.150;18.160;2023-06-26T12:12:33;101015.86;;;34.22;25.98
77454;BME280;66538;53.150;18.160;2023-06-26T12:15:00;101016.11;;;34.47;25.78
77454;BME280;66538;53.150;18.160;2023-06-26T12:17:27;101010.48;;;34.58;24.93
77454;BME280;66538;53.150;18.160;2023-06-26T12:19:54;101008.81;;;34.72;25.14
77454;BME280;66538;53.150;18.160;2023-06-26T12:22:20;101006.42;;;34.89;25.03
77454;BME280;66538;53.150;18.160;2023-06-26T12:24:47;101010.80;;;35.03;24.64
77454;BME280;66538;53.150;18.160;2023-06-26T12:27:15;101004.53;;;35.12;24.48
77454;BME280;66538;53.150;18.160;2023-06-26T12:30:05;100996.00;;;35.15;24.34
77454;BME280;66538;53.150;18.160;2023-06-26T12:32:32;100996.02;;;35.09;24.17
77454;BME280;66538;53.150;18.160;2023-06-26T12:34:58;100995.48;;;35.03;24.10
77454;BME280;66538;53.150;18.160;2023-06-26T12:37:25;100993.84;;;34.89;24.29
77454;BME280;66538;53.150;18.160;2023-06-26T12:39:53;100993.66;;;34.63;23.75
77454;BME280;66538;53.150;18.160;2023-06-26T12:42:25;100989.46;;;34.13;24.31
77454;BME280;66538;53.150;18.160;2023-06-26T12:44:53;100993.49;;;33.78;24.65
77454;BME280;66538;53.150;18.160;2023-06-26T12:47:28;100991.22;;;33.47;24.99
77454;BME280;66538;53.150;18.160;2023-06-26T12:49:57;100984.98;;;33.16;25.73
77454;BME280;66538;53.150;18.160;2023-06-26T12:52:24;100981.42;;;33.09;25.69